Station Historical Data
Daily Summary for July 31, 2017 Units:  English    Metric   Both
« Previous Day
Next Day »
Daily Weekly Monthly Yearly Custom
  High: Low: Average:
Temperature: 86.6 °F 66.9 °F 74.9 °F
Dew Point: 64.9 °F 55.4 °F 61.3 °F
Humidity: 84% 36% 65%
Wind Speed: 9.2mph 0.0mph 5.4mph
Wind Gust: 5.1mph - -
Wind- - SSE
Pressure: 30.14 in 30.04 in -
Precipitation: 0.00 in    
Historical Graphs
 
 
Tabular Data for July 31, 2017
Time Temperature Dew Point Pressure Wind Wind Speed Wind Gust Humidity Rainfall Rate (Hourly) solar Conditions
00:01 71.4 °F 64.5 °F 30.04 in WNW 9.2 mph   79% 0.00 in WeatherDisplay:10.37 W/m2 SCT
00:05 71.4 °F 64.9 °F 30.05 in WNW 9.2 mph   80% 0.00 in WeatherDisplay:10.37 W/m2 SCT
00:10 71.2 °F 64.7 °F 30.05 in WNW 9.2 mph   80% 0.00 in WeatherDisplay:10.37 W/m2 SCT
00:15 71.1 °F 64.6 °F 30.05 in WNW 9.2 mph   80% 0.00 in WeatherDisplay:10.37 W/m2 SCT
00:20 70.9 °F 64.1 °F 30.05 in WNW 9.2 mph   79% 0.00 in WeatherDisplay:10.37 W/m2 SCT
00:25 70.8 °F 64.3 °F 30.05 in WNW 9.2 mph   80% 0.00 in WeatherDisplay:10.37 W/m2 SCT
00:30 70.7 °F 64.2 °F 30.05 in WNW 9.2 mph   80% 0.00 in WeatherDisplay:10.37 W/m2 SCT
00:35 70.6 °F 64.5 °F 30.05 in WNW 9.2 mph   81% 0.00 in WeatherDisplay:10.37 W/m2 SCT
00:40 70.4 °F 63.9 °F 30.05 in WNW 9.2 mph   80% 0.00 in WeatherDisplay:10.37 W/m2 SCT
00:45 70.3 °F 64.2 °F 30.05 in WNW 9.2 mph   81% 0.00 in WeatherDisplay:10.37 W/m2 SCT
00:50 70.1 °F 63.6 °F 30.05 in WNW 9.2 mph   80% 0.00 in WeatherDisplay:10.37 W/m2 SCT
00:55 70.1 °F 63.3 °F 30.06 in WNW 9.2 mph   79% 0.00 in WeatherDisplay:10.37 W/m2 SCT
01:00 70.1 °F 63.6 °F 30.06 in WNW 9.2 mph   80% 0.00 in WeatherDisplay:10.37 W/m2 SCT
01:05 70.1 °F 64.0 °F 30.05 in WNW 9.2 mph   81% 0.00 in WeatherDisplay:10.37 W/m2 SCT
01:10 70.0 °F 63.2 °F 30.05 in WNW 9.2 mph   79% 0.00 in WeatherDisplay:10.37 W/m2 SCT
01:15 70.0 °F 63.2 °F 30.05 in WNW 9.2 mph   79% 0.00 in WeatherDisplay:10.37 W/m2 SCT
01:20 70.0 °F 63.5 °F 30.05 in WNW 9.2 mph   80% 0.00 in WeatherDisplay:10.37 W/m2 CLR
01:26 69.8 °F 63.7 °F 30.05 in WNW 9.2 mph   81% 0.00 in WeatherDisplay:10.37 W/m2 CLR
01:31 69.7 °F 63.6 °F 30.05 in WNW 9.2 mph   81% 0.00 in WeatherDisplay:10.37 W/m2 CLR
01:36 69.5 °F 63.4 °F 30.06 in WNW 9.2 mph   81% 0.00 in WeatherDisplay:10.37 W/m2 CLR
01:41 69.4 °F 63.3 °F 30.06 in WNW 9.2 mph   81% 0.00 in WeatherDisplay:10.37 W/m2 CLR
01:46 69.3 °F 63.2 °F 30.05 in WNW 9.2 mph   81% 0.00 in WeatherDisplay:10.37 W/m2 CLR
01:51 69.2 °F 63.5 °F 30.05 in WNW 9.2 mph   82% 0.00 in WeatherDisplay:10.37 W/m2 CLR
01:56 69.1 °F 63.4 °F 30.05 in WNW 9.2 mph   82% 0.00 in WeatherDisplay:10.37 W/m2 CLR
02:01 69.0 °F 63.6 °F 30.05 in WNW 9.2 mph   83% 0.00 in WeatherDisplay:10.37 W/m2 CLR
02:06 68.8 °F 63.4 °F 30.05 in WNW 9.2 mph   83% 0.00 in WeatherDisplay:10.37 W/m2 CLR
02:11 68.7 °F 63.7 °F 30.06 in WNW 9.2 mph   84% 0.00 in WeatherDisplay:10.37 W/m2 CLR
02:16 68.4 °F 63.0 °F 30.05 in WNW 9.2 mph   83% 0.00 in WeatherDisplay:10.37 W/m2 CLR
02:22 68.3 °F 62.9 °F 30.06 in WNW 9.2 mph   83% 0.00 in WeatherDisplay:10.37 W/m2 CLR
02:27 68.2 °F 62.8 °F 30.06 in WNW 9.2 mph   83% 0.00 in WeatherDisplay:10.37 W/m2 CLR
02:32 68.1 °F 63.1 °F 30.06 in WNW 9.2 mph   84% 0.00 in WeatherDisplay:10.37 W/m2 CLR
02:37 67.9 °F 62.2 °F 30.06 in WNW 9.2 mph   82% 0.00 in WeatherDisplay:10.37 W/m2 CLR
02:42 67.7 °F 62.0 °F 30.06 in WNW 9.2 mph   82% 0.00 in WeatherDisplay:10.37 W/m2 CLR
02:47 66.9 °F 61.2 °F 30.06 in WNW 9.2 mph   82% 0.00 in WeatherDisplay:10.37 W/m2 CLR
02:52 67.3 °F 61.6 °F 30.06 in WNW 9.2 mph   82% 0.00 in WeatherDisplay:10.37 W/m2 CLR
02:57 67.3 °F 61.6 °F 30.06 in WNW 9.2 mph   82% 0.00 in WeatherDisplay:10.37 W/m2 CLR
03:02 67.3 °F 61.6 °F 30.06 in North 9.2 mph   82% 0.00 in WeatherDisplay:10.37 W/m2 CLR
03:07 67.3 °F 61.6 °F 30.06 in North 9.2 mph   82% 0.00 in WeatherDisplay:10.37 W/m2 CLR
03:12 67.3 °F 61.6 °F 30.06 in North 9.2 mph   82% 0.00 in WeatherDisplay:10.37 W/m2 CLR
03:17 67.3 °F 61.6 °F 30.06 in North 9.2 mph   82% 0.00 in WeatherDisplay:10.37 W/m2 CLR
03:22 67.3 °F 61.6 °F 30.06 in North 9.2 mph   82% 0.00 in WeatherDisplay:10.37 W/m2 CLR
03:27 67.3 °F 61.6 °F 30.06 in North 9.2 mph   82% 0.00 in WeatherDisplay:10.37 W/m2 CLR
03:32 67.3 °F 61.6 °F 30.06 in North 9.2 mph   82% 0.00 in WeatherDisplay:10.37 W/m2 CLR
03:37 67.3 °F 61.6 °F 30.06 in North 9.2 mph   82% 0.00 in WeatherDisplay:10.37 W/m2 CLR
03:42 67.3 °F 61.6 °F 30.06 in North 9.2 mph   82% 0.00 in WeatherDisplay:10.37 W/m2 CLR
03:47 67.3 °F 61.6 °F 30.06 in North 9.2 mph   82% 0.00 in WeatherDisplay:10.37 W/m2 CLR
03:53 67.3 °F 61.6 °F 30.06 in North 9.2 mph   82% 0.00 in WeatherDisplay:10.37 W/m2 CLR
03:58 67.3 °F 61.6 °F 30.06 in North 9.2 mph   82% 0.00 in WeatherDisplay:10.37 W/m2 CLR
04:03 67.3 °F 61.6 °F 30.06 in North 9.2 mph   82% 0.00 in WeatherDisplay:10.37 W/m2 CLR
04:05 67.3 °F 61.6 °F 30.07 in Calm     82% 0.00 in WeatherDisplay:10.37 W/m2 CLR
04:10 67.3 °F 61.6 °F 30.07 in Calm     82% 0.00 in WeatherDisplay:10.37 W/m2 CLR
04:15 67.3 °F 61.6 °F 30.06 in Calm     82% 0.00 in WeatherDisplay:10.37 W/m2 CLR
04:20 67.3 °F 61.6 °F 30.06 in Calm     82% 0.00 in WeatherDisplay:10.37 W/m2 FEW
04:25 67.3 °F 61.6 °F 30.06 in Calm     82% 0.00 in WeatherDisplay:10.37 W/m2 FEW
04:30 67.3 °F 61.6 °F 30.06 in Calm     82% 0.00 in WeatherDisplay:10.37 W/m2 FEW
04:35 67.3 °F 61.6 °F 30.06 in Calm     82% 0.00 in WeatherDisplay:10.37 W/m2 FEW
04:38 67.3 °F 61.6 °F 30.06 in North 9.2 mph   82% 0.00 in WeatherDisplay:10.37 W/m2 FEW
04:43 67.3 °F 61.6 °F 30.06 in North 9.2 mph   82% 0.00 in WeatherDisplay:10.37 W/m2 FEW
04:48 67.3 °F 61.6 °F 30.06 in North 9.2 mph   82% 0.00 in WeatherDisplay:10.37 W/m2 FEW
04:53 67.3 °F 61.6 °F 30.07 in North 9.2 mph   82% 0.00 in WeatherDisplay:10.37 W/m2 FEW
04:58 67.3 °F 61.6 °F 30.07 in North 9.2 mph   82% 0.00 in WeatherDisplay:10.37 W/m2 FEW
05:03 67.3 °F 61.6 °F 30.07 in North 9.2 mph   82% 0.00 in WeatherDisplay:10.37 W/m2 FEW
05:08 67.3 °F 61.6 °F 30.07 in North 9.2 mph   82% 0.00 in WeatherDisplay:10.37 W/m2 FEW
05:13 67.3 °F 61.6 °F 30.07 in North 9.2 mph   82% 0.00 in WeatherDisplay:10.37 W/m2 FEW
05:18 67.3 °F 61.6 °F 30.07 in North 9.2 mph   82% 0.00 in WeatherDisplay:10.37 W/m2 FEW
05:23 67.3 °F 61.6 °F 30.08 in North 9.2 mph   82% 0.00 in WeatherDisplay:10.37 W/m2 CLR
05:28 67.3 °F 61.6 °F 30.08 in North 9.2 mph   82% 0.00 in WeatherDisplay:10.37 W/m2 CLR
05:33 67.3 °F 61.6 °F 30.08 in North 9.2 mph   82% 0.00 in WeatherDisplay:10.37 W/m2 CLR
05:38 67.3 °F 61.6 °F 30.08 in North 9.2 mph   82% 0.00 in WeatherDisplay:10.37 W/m2 CLR
05:43 67.3 °F 61.6 °F 30.08 in North 9.2 mph   82% 0.00 in WeatherDisplay:10.37 W/m2 CLR
05:48 67.3 °F 61.6 °F 30.08 in North 9.2 mph   82% 0.00 in WeatherDisplay:10.37 W/m2 CLR
05:53 67.3 °F 61.6 °F 30.08 in North 9.2 mph   82% 0.00 in WeatherDisplay:10.37 W/m2 CLR
05:58 67.3 °F 61.6 °F 30.09 in North 9.2 mph   82% 0.00 in WeatherDisplay:10.37 W/m2 CLR
06:04 67.3 °F 61.6 °F 30.09 in North 9.2 mph   82% 0.00 in WeatherDisplay:10.37 W/m2 CLR
06:09 67.3 °F 61.6 °F 30.09 in North 9.2 mph   82% 0.00 in WeatherDisplay:10.37 W/m2 CLR
06:14 67.3 °F 61.6 °F 30.09 in North 9.2 mph   82% 0.00 in WeatherDisplay:10.37 W/m2 CLR
06:19 67.3 °F 61.6 °F 30.09 in North 9.2 mph   82% 0.00 in WeatherDisplay:10.37 W/m2 CLR
06:24 67.3 °F 61.6 °F 30.10 in North 9.2 mph   82% 0.00 in WeatherDisplay:10.37 W/m2 CLR
06:29 67.3 °F 61.6 °F 30.10 in North 9.2 mph   82% 0.00 in WeatherDisplay:10.37 W/m2 CLR
06:34 67.3 °F 61.6 °F 30.10 in North 9.2 mph   82% 0.00 in WeatherDisplay:10.37 W/m2 CLR
06:39 67.3 °F 61.6 °F 30.10 in North 9.2 mph   82% 0.00 in WeatherDisplay:10.37 W/m2 CLR
06:44 67.3 °F 61.6 °F 30.10 in North 9.2 mph   82% 0.00 in WeatherDisplay:10.37 W/m2 CLR
06:49 67.3 °F 61.6 °F 30.10 in North 9.2 mph   82% 0.00 in WeatherDisplay:10.37 W/m2 CLR
06:54 67.3 °F 61.6 °F 30.10 in North 9.2 mph   82% 0.00 in WeatherDisplay:10.37 W/m2 CLR
06:59 67.3 °F 61.6 °F 30.11 in North 9.2 mph   82% 0.00 in WeatherDisplay:10.37 W/m2 CLR
07:04 67.3 °F 61.6 °F 30.11 in North 9.2 mph   82% 0.00 in WeatherDisplay:10.37 W/m2 CLR
07:09 67.3 °F 61.6 °F 30.11 in North 9.2 mph   82% 0.00 in WeatherDisplay:10.37 W/m2 CLR
07:14 67.3 °F 61.6 °F 30.11 in North 9.2 mph   82% 0.00 in WeatherDisplay:10.37 W/m2 CLR
07:19 67.3 °F 61.6 °F 30.11 in North 9.2 mph   82% 0.00 in WeatherDisplay:10.37 W/m2 CLR
07:24 67.3 °F 61.6 °F 30.11 in North 9.2 mph   82% 0.00 in WeatherDisplay:10.37 W/m2 CLR
07:29 67.3 °F 61.6 °F 30.11 in North 9.2 mph   82% 0.00 in WeatherDisplay:10.37 W/m2 CLR
07:34 67.3 °F 61.6 °F 30.11 in North 9.2 mph   82% 0.00 in WeatherDisplay:10.37 W/m2 CLR
07:39 67.3 °F 61.6 °F 30.11 in North 9.2 mph   82% 0.00 in WeatherDisplay:10.37 W/m2 CLR
07:45 67.3 °F 61.6 °F 30.11 in Calm     82% 0.00 in WeatherDisplay:10.37 W/m2 CLR
07:50 67.3 °F 61.6 °F 30.12 in North 9.2 mph   82% 0.00 in WeatherDisplay:10.37 W/m2 CLR
07:55 67.3 °F 61.6 °F 30.12 in Calm     82% 0.00 in WeatherDisplay:10.37 W/m2 CLR
08:00 67.3 °F 61.6 °F 30.12 in Calm     82% 0.00 in WeatherDisplay:10.37 W/m2 CLR
08:05 67.3 °F 61.6 °F 30.12 in Calm     82% 0.00 in WeatherDisplay:10.37 W/m2 CLR
08:10 67.3 °F 61.6 °F 30.12 in North 9.2 mph   82% 0.00 in WeatherDisplay:10.37 W/m2 CLR
08:15 67.3 °F 61.6 °F 30.12 in Calm     82% 0.00 in WeatherDisplay:10.37 W/m2 CLR
08:20 67.3 °F 61.6 °F 30.13 in Calm     82% 0.00 in WeatherDisplay:10.37 W/m2 FEW
08:25 67.3 °F 61.6 °F 30.13 in Calm     82% 0.00 in WeatherDisplay:10.37 W/m2 FEW
08:30 67.3 °F 61.6 °F 30.13 in Calm     82% 0.00 in WeatherDisplay:10.37 W/m2 FEW
08:35 67.3 °F 61.6 °F 30.13 in Calm     82% 0.00 in WeatherDisplay:10.37 W/m2 FEW
08:40 67.1 °F 61.1 °F 30.13 in Calm     81% 0.00 in WeatherDisplay:10.37 W/m2 FEW
08:45 67.5 °F 61.1 °F 30.13 in Calm     80% 0.00 in WeatherDisplay:10.37 W/m2 FEW
08:50 68.1 °F 61.3 °F 30.13 in Calm     79% 0.00 in WeatherDisplay:10.37 W/m2 FEW
08:55 68.9 °F 61.4 °F 30.13 in Calm     77% 0.00 in WeatherDisplay:10.37 W/m2 FEW
09:00 69.5 °F 61.6 °F 30.13 in Calm     76% 0.00 in WeatherDisplay:10.37 W/m2 FEW
09:05 69.8 °F 61.5 °F 30.13 in Calm     75% 0.00 in WeatherDisplay:10.37 W/m2 FEW
09:10 70.4 °F 61.7 °F 30.13 in Calm     74% 0.00 in WeatherDisplay:10.37 W/m2 FEW
09:15 71.0 °F 60.7 °F 30.13 in WNW 1.2 mph 1.2 mph 70% 0.00 in WeatherDisplay:10.37 W/m2 FEW
09:20 71.5 °F 60.8 °F 30.13 in WNW 1.2 mph   69% 0.00 in WeatherDisplay:10.37 W/m2 FEW
09:25 72.2 °F 61.5 °F 30.13 in WNW 1.2 mph   69% 0.00 in WeatherDisplay:10.37 W/m2 FEW
09:30 72.8 °F 61.6 °F 30.13 in NW 1.2 mph   68% 0.00 in WeatherDisplay:10.37 W/m2 FEW
09:35 73.0 °F 61.4 °F 30.13 in WNW 1.2 mph 1.2 mph 67% 0.00 in WeatherDisplay:10.37 W/m2 FEW
09:40 73.3 °F 60.4 °F 30.13 in WNW 1.2 mph 1.2 mph 64% 0.00 in WeatherDisplay:10.37 W/m2 FEW
09:45 73.5 °F 61.0 °F 30.13 in WNW 2.3 mph   65% 0.00 in WeatherDisplay:10.37 W/m2 FEW
09:51 73.8 °F 61.7 °F 30.13 in WNW 2.3 mph   66% 0.00 in WeatherDisplay:10.37 W/m2 FEW
09:56 74.1 °F 61.1 °F 30.13 in WNW 2.3 mph   64% 0.00 in WeatherDisplay:10.37 W/m2 FEW
10:01 74.3 °F 60.9 °F 30.13 in WNW 2.3 mph   63% 0.00 in WeatherDisplay:10.37 W/m2 FEW
10:06 74.7 °F 60.8 °F 30.13 in NW 2.3 mph   62% 0.00 in WeatherDisplay:10.37 W/m2 FEW
10:11 75.0 °F 61.1 °F 30.14 in NW 2.3 mph   62% 0.00 in WeatherDisplay:10.37 W/m2 FEW
10:16 75.4 °F 61.9 °F 30.14 in NNE 2.3 mph 2.3 mph 63% 0.00 in WeatherDisplay:10.37 W/m2 FEW
10:21 75.7 °F 60.8 °F 30.14 in WNW 2.3 mph   60% 0.00 in WeatherDisplay:10.37 W/m2 FEW
10:26 76.0 °F 61.1 °F 30.14 in NW 2.3 mph   60% 0.00 in WeatherDisplay:10.37 W/m2 FEW
10:31 76.5 °F 61.6 °F 30.14 in NW 2.3 mph   60% 0.00 in WeatherDisplay:10.37 W/m2 FEW
10:36 76.9 °F 62.0 °F 30.14 in NW 2.3 mph 2.3 mph 60% 0.00 in WeatherDisplay:10.37 W/m2 FEW
10:41 77.2 °F 60.8 °F 30.14 in NW 2.3 mph   57% 0.00 in WeatherDisplay:10.37 W/m2 FEW
10:46 77.5 °F 61.6 °F 30.14 in NW 2.3 mph   58% 0.00 in WeatherDisplay:10.37 W/m2 FEW
10:51 78.0 °F 62.0 °F 30.14 in NW 2.3 mph   58% 0.00 in WeatherDisplay:10.37 W/m2 FEW
10:56 78.5 °F 61.5 °F 30.14 in NW 2.3 mph   56% 0.00 in WeatherDisplay:10.37 W/m2 FEW
11:01 78.7 °F 60.1 °F 30.14 in North 2.3 mph 2.3 mph 53% 0.00 in WeatherDisplay:10.37 W/m2 FEW
11:06 78.8 °F 60.7 °F 30.14 in West 2.3 mph   54% 0.00 in WeatherDisplay:10.37 W/m2 FEW
11:11 78.7 °F 59.6 °F 30.14 in NW 2.3 mph   52% 0.00 in WeatherDisplay:10.37 W/m2 FEW
11:16 78.6 °F 60.0 °F 30.14 in NW 2.3 mph   53% 0.00 in WeatherDisplay:10.37 W/m2 FEW
11:21 78.7 °F 61.2 °F 30.14 in NW 2.3 mph   55% 0.00 in WeatherDisplay:10.37 W/m2 FEW
11:27 78.9 °F 60.8 °F 30.14 in WNW 2.3 mph   54% 0.00 in WeatherDisplay:10.37 W/m2 FEW
11:32 78.8 °F 59.1 °F 30.14 in South 2.3 mph 2.3 mph 51% 0.00 in WeatherDisplay:10.37 W/m2 FEW
11:37 78.8 °F 59.7 °F 30.14 in WNW 2.3 mph 2.3 mph 52% 0.00 in WeatherDisplay:10.37 W/m2 FEW
11:42 78.7 °F 58.5 °F 30.14 in WNW 2.3 mph 2.3 mph 50% 0.00 in WeatherDisplay:10.37 W/m2 FEW
11:47 78.7 °F 59.6 °F 30.14 in NW 2.3 mph 2.3 mph 52% 0.00 in WeatherDisplay:10.37 W/m2 FEW
11:52 78.9 °F 58.7 °F 30.14 in NW 2.3 mph 2.3 mph 50% 0.00 in WeatherDisplay:10.37 W/m2 FEW
11:57 79.5 °F 58.7 °F 30.14 in NW 2.3 mph 2.3 mph 49% 0.00 in WeatherDisplay:10.37 W/m2 FEW
12:02 79.7 °F 58.3 °F 30.14 in WNW 2.3 mph   48% 0.00 in WeatherDisplay:10.37 W/m2 FEW
12:07 79.7 °F 59.4 °F 30.14 in SW 2.3 mph   50% 0.00 in WeatherDisplay:10.37 W/m2 FEW
12:12 79.9 °F 56.7 °F 30.14 in West 2.3 mph 2.3 mph 45% 0.00 in WeatherDisplay:10.37 W/m2 FEW
12:17 80.2 °F 58.7 °F 30.14 in NW 2.3 mph 2.3 mph 48% 0.00 in WeatherDisplay:10.37 W/m2 FEW
12:23 80.4 °F 58.9 °F 30.14 in NW 2.3 mph   48% 0.00 in WeatherDisplay:10.37 W/m2 FEW
12:28 80.5 °F 58.4 °F 30.14 in NNW 2.3 mph   47% 0.00 in WeatherDisplay:10.37 W/m2 FEW
12:33 81.1 °F 57.7 °F 30.14 in West 2.3 mph 2.3 mph 45% 0.00 in WeatherDisplay:10.37 W/m2 FEW
12:38 80.9 °F 58.2 °F 30.13 in West 3.5 mph   46% 0.00 in WeatherDisplay:10.37 W/m2 FEW
12:43 81.2 °F 57.8 °F 30.13 in East 3.5 mph 3.5 mph 45% 0.00 in WeatherDisplay:10.37 W/m2 FEW
12:48 81.6 °F 56.3 °F 30.13 in WNW 3.5 mph 3.5 mph 42% 0.00 in WeatherDisplay:10.37 W/m2 FEW
12:53 82.1 °F 56.7 °F 30.13 in East 3.5 mph 3.5 mph 42% 0.00 in WeatherDisplay:10.37 W/m2 FEW
12:58 82.5 °F 57.7 °F 30.13 in NW 4.6 mph 4.6 mph 43% 0.00 in WeatherDisplay:10.37 W/m2 FEW
13:03 83.0 °F 56.9 °F 30.13 in NW 4.6 mph   41% 0.00 in WeatherDisplay:10.37 W/m2 FEW
13:08 83.5 °F 58.6 °F 30.12 in NW 4.6 mph   43% 0.00 in WeatherDisplay:10.37 W/m2 FEW
13:13 84.5 °F 56.8 °F 30.12 in NW 4.6 mph   39% 0.00 in WeatherDisplay:10.37 W/m2 FEW
13:18 85.2 °F 57.4 °F 30.12 in NW 4.6 mph 4.6 mph 39% 0.00 in WeatherDisplay:10.37 W/m2 FEW
13:23 85.4 °F 61.0 °F 30.12 in WNW 4.6 mph 4.6 mph 44% 0.00 in WeatherDisplay:10.37 W/m2 FEW
13:28 85.4 °F 56.9 °F 30.12 in NNW 4.6 mph 4.6 mph 38% 0.00 in WeatherDisplay:10.37 W/m2 FEW
13:33 85.2 °F 56.0 °F 30.12 in WNW 4.6 mph 4.6 mph 37% 0.00 in WeatherDisplay:10.37 W/m2 FEW
13:38 85.1 °F 59.4 °F 30.11 in NW 4.6 mph   42% 0.00 in WeatherDisplay:10.37 W/m2 FEW
13:43 85.5 °F 56.3 °F 30.11 in West 4.6 mph   37% 0.00 in WeatherDisplay:10.37 W/m2 FEW
13:48 86.0 °F 56.7 °F 30.11 in North 4.6 mph 4.6 mph 37% 0.00 in WeatherDisplay:10.37 W/m2 FEW
13:53 86.4 °F 59.9 °F 30.11 in NW 4.6 mph   41% 0.00 in WeatherDisplay:10.37 W/m2 FEW
13:58 86.6 °F 56.5 °F 30.10 in NW 4.6 mph 4.6 mph 36% 0.00 in WeatherDisplay:10.37 W/m2 FEW
14:04 85.6 °F 56.3 °F 30.10 in ESE 4.6 mph 4.6 mph 37% 0.00 in WeatherDisplay:10.37 W/m2 FEW
14:09 85.4 °F 55.4 °F 30.10 in East 4.6 mph   36% 0.00 in WeatherDisplay:10.37 W/m2 FEW
14:10 85.5 °F 57.0 °F 30.10 in ESE 4.6 mph 4.6 mph 38% 0.00 in WeatherDisplay:10.37 W/m2 FEW
14:14 85.8 °F 58.0 °F 30.10 in ESE 4.6 mph   39% 0.00 in WeatherDisplay:10.37 W/m2 FEW
14:19 86.2 °F 58.3 °F 30.10 in ENE 4.6 mph 4.6 mph 39% 0.00 in WeatherDisplay:10.37 W/m2 FEW
14:24 85.6 °F 55.6 °F 30.09 in ENE 5.1 mph 5.1 mph 36% 0.00 in WeatherDisplay:10.37 W/m2 FEW
14:29 84.6 °F 58.3 °F 30.09 in East 5.1 mph 5.1 mph 41% 0.00 in WeatherDisplay:10.37 W/m2 FEW
14:34 84.4 °F 57.4 °F 30.09 in NW 5.1 mph 5.1 mph 40% 0.00 in WeatherDisplay:10.37 W/m2 FEW
14:39 84.4 °F 59.5 °F 30.09 in NNE 5.1 mph 5.1 mph 43% 0.00 in WeatherDisplay:10.37 W/m2 FEW
14:44 84.3 °F 58.0 °F 30.09 in SSW 5.1 mph 5.1 mph 41% 0.00 in WeatherDisplay:10.37 W/m2 FEW
14:49 83.8 °F 57.6 °F 30.09 in NNW 5.1 mph 5.1 mph 41% 0.00 in WeatherDisplay:10.37 W/m2 FEW
14:54 83.7 °F 58.2 °F 30.09 in SSE 5.1 mph   42% 0.00 in WeatherDisplay:10.37 W/m2 FEW
14:59 83.9 °F 59.0 °F 30.09 in NW 5.1 mph 5.1 mph 43% 0.00 in WeatherDisplay:10.37 W/m2 FEW
15:04 84.0 °F 59.1 °F 30.08 in NW 5.1 mph   43% 0.00 in WeatherDisplay:10.37 W/m2 FEW
15:09 84.1 °F 59.8 °F 30.08 in North 5.1 mph 5.1 mph 44% 0.00 in WeatherDisplay:10.37 W/m2 FEW
15:14 84.0 °F 59.1 °F 30.08 in NNW 5.1 mph 5.1 mph 43% 0.00 in WeatherDisplay:10.37 W/m2 FEW
15:19 84.1 °F 61.1 °F 30.08 in WNW 5.1 mph   46% 0.00 in WeatherDisplay:10.37 W/m2 FEW
15:24 84.2 °F 59.9 °F 30.08 in WNW 5.1 mph   44% 0.00 in WeatherDisplay:10.37 W/m2 FEW
15:29 84.2 °F 59.3 °F 30.08 in WNW 5.1 mph   43% 0.00 in WeatherDisplay:10.37 W/m2 FEW
15:34 84.2 °F 58.6 °F 30.07 in North 5.1 mph   42% 0.00 in WeatherDisplay:10.37 W/m2 FEW
15:39 84.1 °F 58.5 °F 30.08 in WSW 5.1 mph   42% 0.00 in WeatherDisplay:10.37 W/m2 FEW
15:45 83.9 °F 58.3 °F 30.08 in NW 5.1 mph 5.1 mph 42% 0.00 in WeatherDisplay:10.37 W/m2 FEW
15:50 83.6 °F 57.4 °F 30.08 in NNW 5.1 mph 5.1 mph 41% 0.00 in WeatherDisplay:10.37 W/m2 FEW
15:55 83.6 °F 59.4 °F 30.07 in Calm   1.0 mph 44% 0.00 in WeatherDisplay:10.37 W/m2 FEW
16:00 83.4 °F 58.6 °F 30.07 in Calm   2.0 mph 43% 0.00 in WeatherDisplay:10.37 W/m2 FEW
16:05 83.4 °F 57.9 °F 30.07 in ENE 5.1 mph 5.1 mph 42% 0.00 in WeatherDisplay:10.37 W/m2 FEW
16:10 83.5 °F 59.3 °F 30.07 in Calm   1.0 mph 44% 0.00 in WeatherDisplay:10.37 W/m2 FEW
16:15 83.5 °F 58.0 °F 30.06 in Calm   2.0 mph 42% 0.00 in WeatherDisplay:10.37 W/m2 FEW
16:20 83.5 °F 58.0 °F 30.06 in Calm   2.0 mph 42% 0.00 in WeatherDisplay:10.37 W/m2 FEW
16:25 83.6 °F 60.6 °F 30.06 in NW 5.1 mph 5.1 mph 46% 0.00 in WeatherDisplay:10.37 W/m2 FEW
16:30 83.5 °F 58.6 °F 30.06 in NE 5.1 mph 5.1 mph 43% 0.00 in WeatherDisplay:10.37 W/m2 FEW
16:35 83.4 °F 58.6 °F 30.06 in ENE 5.1 mph   43% 0.00 in WeatherDisplay:10.37 W/m2 FEW
16:40 83.4 °F 59.2 °F 30.06 in NW 5.1 mph 5.1 mph 44% 0.00 in WeatherDisplay:10.37 W/m2 FEW
16:45 83.4 °F 59.8 °F 30.06 in South 5.1 mph 5.1 mph 45% 0.00 in WeatherDisplay:10.37 W/m2 FEW
16:50 83.5 °F 60.5 °F 30.06 in NW 5.1 mph   46% 0.00 in WeatherDisplay:10.37 W/m2 FEW
16:55 83.5 °F 59.9 °F 30.06 in WNW 5.1 mph   45% 0.00 in WeatherDisplay:10.37 W/m2 FEW
17:00 83.6 °F 61.2 °F 30.06 in WNW 5.1 mph   47% 0.00 in WeatherDisplay:10.37 W/m2 FEW
17:05 83.6 °F 59.4 °F 30.06 in ENE 5.1 mph 5.1 mph 44% 0.00 in WeatherDisplay:10.37 W/m2 FEW
17:10 83.7 °F 60.1 °F 30.06 in NW 5.1 mph 5.1 mph 45% 0.00 in WeatherDisplay:10.37 W/m2 FEW
17:11 83.7 °F 60.7 °F 30.06 in NW 5.1 mph   46% 0.00 in WeatherDisplay:10.37 W/m2 FEW
17:16 83.7 °F 60.1 °F 30.06 in NW 5.1 mph   45% 0.00 in WeatherDisplay:10.37 W/m2 FEW
17:21 84.2 °F 61.2 °F 30.06 in NW 5.1 mph   46% 0.00 in WeatherDisplay:10.37 W/m2 FEW
17:26 84.6 °F 60.9 °F 30.06 in NNW 5.1 mph 5.1 mph 45% 0.00 in WeatherDisplay:10.37 W/m2 FEW
17:31 84.5 °F 59.5 °F 30.06 in NW 5.1 mph   43% 0.00 in WeatherDisplay:10.37 W/m2 FEW
17:36 84.2 °F 59.3 °F 30.06 in NE 5.1 mph 5.1 mph 43% 0.00 in WeatherDisplay:10.37 W/m2 FEW
17:41 84.1 °F 58.5 °F 30.05 in NNE 5.1 mph 5.1 mph 42% 0.00 in WeatherDisplay:10.37 W/m2 FEW
17:47 84.0 °F 60.4 °F 30.06 in NNE 5.1 mph   45% 0.00 in WeatherDisplay:10.37 W/m2 FEW
17:52 83.6 °F 60.0 °F 30.06 in ENE 5.1 mph 5.1 mph 45% 0.00 in WeatherDisplay:10.37 W/m2 FEW
17:57 83.1 °F 60.2 °F 30.05 in ENE 5.1 mph   46% 0.00 in WeatherDisplay:10.37 W/m2 FEW
18:02 82.5 °F 61.4 °F 30.05 in ENE 5.1 mph   49% 0.00 in WeatherDisplay:10.37 W/m2 FEW
18:07 82.1 °F 59.9 °F 30.06 in ENE 5.1 mph   47% 0.00 in WeatherDisplay:10.37 W/m2 FEW
18:12 82.1 °F 61.0 °F 30.06 in ENE 5.1 mph   49% 0.00 in WeatherDisplay:10.37 W/m2 FEW
18:17 82.0 °F 62.1 °F 30.06 in ENE 5.1 mph   51% 0.00 in WeatherDisplay:10.37 W/m2 FEW
18:22 81.8 °F 61.9 °F 30.06 in ENE 5.1 mph   51% 0.00 in WeatherDisplay:10.37 W/m2 SCT
18:27 81.6 °F 62.3 °F 30.06 in ENE 5.1 mph   52% 0.00 in WeatherDisplay:10.37 W/m2 SCT
18:32 81.1 °F 62.9 °F 30.06 in ENE 5.1 mph   54% 0.00 in WeatherDisplay:10.37 W/m2 SCT
18:37 80.8 °F 62.6 °F 30.06 in ENE 5.1 mph   54% 0.00 in WeatherDisplay:10.37 W/m2 SCT
18:42 80.6 °F 62.4 °F 30.06 in ENE 5.1 mph   54% 0.00 in WeatherDisplay:10.37 W/m2 SCT
18:47 80.5 °F 62.3 °F 30.05 in ENE 5.1 mph   54% 0.00 in WeatherDisplay:10.37 W/m2 SCT
18:52 80.3 °F 61.6 °F 30.06 in ENE 5.1 mph   53% 0.00 in WeatherDisplay:10.37 W/m2 SCT
18:58 80.4 °F 61.7 °F 30.06 in ENE 5.1 mph   53% 0.00 in WeatherDisplay:10.37 W/m2 SCT
19:03 80.3 °F 62.7 °F 30.05 in ENE 5.1 mph   55% 0.00 in WeatherDisplay:10.37 W/m2 SCT
19:08 80.2 °F 63.1 °F 30.06 in ENE 5.1 mph   56% 0.00 in WeatherDisplay:10.37 W/m2 SCT
19:13 80.1 °F 64.5 °F 30.05 in ENE 5.1 mph   59% 0.00 in WeatherDisplay:10.37 W/m2 SCT
19:18 79.9 °F 63.3 °F 30.06 in ENE 5.1 mph   57% 0.00 in WeatherDisplay:10.37 W/m2 SCT
19:23 79.7 °F 63.6 °F 30.05 in ENE 5.1 mph   58% 0.00 in WeatherDisplay:10.37 W/m2 BKN
19:25 79.6 °F 63.0 °F 30.05 in ENE 5.1 mph   57% 0.00 in WeatherDisplay:10.37 W/m2 BKN
19:30 79.5 °F 63.4 °F 30.05 in ENE 5.1 mph   58% 0.00 in WeatherDisplay:10.37 W/m2 BKN
19:35 79.2 °F 63.1 °F 30.05 in ENE 5.1 mph   58% 0.00 in WeatherDisplay:10.37 W/m2 BKN
19:40 79.0 °F 63.4 °F 30.06 in ENE 5.1 mph   59% 0.00 in WeatherDisplay:10.37 W/m2 BKN
19:45 79.0 °F 63.9 °F 30.05 in ENE 5.1 mph   60% 0.00 in WeatherDisplay:10.37 W/m2 BKN
19:50 78.8 °F 63.7 °F 30.05 in ENE 5.1 mph   60% 0.00 in WeatherDisplay:10.37 W/m2 BKN
19:56 78.8 °F 63.7 °F 30.06 in ENE 5.1 mph   60% 0.00 in WeatherDisplay:10.37 W/m2 BKN
20:01 78.8 °F 63.7 °F 30.06 in ENE 5.1 mph   60% 0.00 in WeatherDisplay:10.37 W/m2 BKN
20:05 78.7 °F 63.6 °F 30.06 in ENE 5.1 mph   60% 0.00 in WeatherDisplay:10.37 W/m2 BKN
20:10 78.6 °F 63.6 °F 30.06 in ENE 5.1 mph   60% 0.00 in WeatherDisplay:10.37 W/m2 BKN
20:15 78.5 °F 63.9 °F 30.06 in ENE 5.1 mph   61% 0.00 in WeatherDisplay:10.37 W/m2 BKN
20:20 78.3 °F 63.7 °F 30.06 in ENE 5.1 mph   61% 0.00 in WeatherDisplay:10.37 W/m2 BKN
20:25 77.9 °F 63.8 °F 30.06 in ENE 5.1 mph   62% 0.00 in WeatherDisplay:10.37 W/m2 BKN
20:30 77.7 °F 64.1 °F 30.06 in ENE 5.1 mph   63% 0.00 in WeatherDisplay:10.37 W/m2 BKN
20:36 77.4 °F 63.8 °F 30.06 in ENE 5.1 mph   63% 0.00 in WeatherDisplay:10.37 W/m2 BKN
20:41 77.2 °F 64.1 °F 30.06 in ENE 5.1 mph   64% 0.00 in WeatherDisplay:10.37 W/m2 BKN
20:46 76.9 °F 63.3 °F 30.06 in ENE 5.1 mph   63% 0.00 in WeatherDisplay:10.37 W/m2 BKN
20:51 76.6 °F 63.1 °F 30.06 in ENE 5.1 mph   63% 0.00 in WeatherDisplay:10.37 W/m2 BKN
20:56 76.4 °F 63.8 °F 30.06 in ENE 5.1 mph   65% 0.00 in WeatherDisplay:10.37 W/m2 BKN
21:01 76.1 °F 63.5 °F 30.06 in ENE 5.1 mph   65% 0.00 in WeatherDisplay:10.37 W/m2 BKN
21:06 75.8 °F 63.2 °F 30.07 in ENE 5.1 mph   65% 0.00 in WeatherDisplay:10.37 W/m2 BKN
21:11 75.5 °F 63.3 °F 30.07 in ENE 5.1 mph   66% 0.00 in WeatherDisplay:10.37 W/m2 BKN
21:16 75.1 °F 63.4 °F 30.07 in ENE 5.1 mph   67% 0.00 in WeatherDisplay:10.37 W/m2 BKN
21:21 74.8 °F 63.5 °F 30.07 in ENE 5.1 mph   68% 0.00 in WeatherDisplay:10.37 W/m2 SCT
21:27 74.6 °F 63.3 °F 30.07 in ENE 5.1 mph   68% 0.00 in WeatherDisplay:10.37 W/m2 SCT
21:32 74.4 °F 63.6 °F 30.07 in ENE 5.1 mph   69% 0.00 in WeatherDisplay:10.37 W/m2 SCT
21:37 74.2 °F 63.4 °F 30.07 in ENE 5.1 mph   69% 0.00 in WeatherDisplay:10.37 W/m2 SCT
21:42 74.0 °F 62.8 °F 30.07 in ENE 5.1 mph   68% 0.00 in WeatherDisplay:10.37 W/m2 SCT
21:47 73.7 °F 62.9 °F 30.07 in ENE 5.1 mph   69% 0.00 in WeatherDisplay:10.37 W/m2 SCT
21:52 73.5 °F 62.7 °F 30.07 in ENE 5.1 mph   69% 0.00 in WeatherDisplay:10.37 W/m2 SCT
21:57 73.3 °F 62.5 °F 30.07 in ENE 5.1 mph   69% 0.00 in WeatherDisplay:10.37 W/m2 SCT
22:02 73.2 °F 62.8 °F 30.08 in ENE 5.1 mph   70% 0.00 in WeatherDisplay:10.37 W/m2 SCT
22:07 73.1 °F 62.3 °F 30.08 in ENE 5.1 mph   69% 0.00 in WeatherDisplay:10.37 W/m2 SCT
22:12 72.9 °F 62.9 °F 30.08 in ENE 5.1 mph   71% 0.00 in WeatherDisplay:10.37 W/m2 SCT
22:17 72.7 °F 63.1 °F 30.08 in ENE 5.1 mph   72% 0.00 in WeatherDisplay:10.37 W/m2 SCT
22:22 72.6 °F 63.4 °F 30.08 in ENE 5.1 mph   73% 0.00 in WeatherDisplay:10.37 W/m2 SCT
22:27 72.4 °F 63.3 °F 30.08 in ENE 5.1 mph   73% 0.00 in WeatherDisplay:10.37 W/m2 SCT
22:32 72.1 °F 62.2 °F 30.08 in ENE 5.1 mph   71% 0.00 in WeatherDisplay:10.37 W/m2 SCT
22:38 71.9 °F 62.8 °F 30.08 in ENE 5.1 mph   73% 0.00 in WeatherDisplay:10.37 W/m2 SCT
22:43 71.8 °F 63.1 °F 30.08 in ENE 5.1 mph   74% 0.00 in WeatherDisplay:10.37 W/m2 SCT
22:48 71.7 °F 63.0 °F 30.09 in ENE 5.1 mph   74% 0.00 in WeatherDisplay:10.37 W/m2 SCT
22:53 71.5 °F 62.8 °F 30.08 in ENE 5.1 mph   74% 0.00 in WeatherDisplay:10.37 W/m2 SCT
22:58 71.4 °F 63.1 °F 30.08 in ENE 5.1 mph   75% 0.00 in WeatherDisplay:10.37 W/m2 SCT
22:59 71.4 °F 63.1 °F 30.08 in ENE 5.1 mph   75% 0.00 in WeatherDisplay:10.37 W/m2 SCT
23:04 71.2 °F 62.9 °F 30.08 in ENE 5.1 mph   75% 0.00 in WeatherDisplay:10.37 W/m2 SCT
23:05 71.2 °F 62.5 °F 30.08 in ENE 5.1 mph   74% 0.00 in WeatherDisplay:10.37 W/m2 SCT
23:10 71.0 °F 63.1 °F 30.08 in ENE 5.1 mph   76% 0.00 in WeatherDisplay:10.37 W/m2 SCT
23:15 70.9 °F 63.0 °F 30.08 in ENE 5.1 mph   76% 0.00 in WeatherDisplay:10.37 W/m2 SCT
23:20 70.8 °F 62.9 °F 30.08 in ENE 5.1 mph   76% 0.00 in WeatherDisplay:10.37 W/m2 FEW
23:25 70.7 °F 63.1 °F 30.08 in ENE 5.1 mph   77% 0.00 in WeatherDisplay:10.37 W/m2 FEW
23:30 70.5 °F 62.9 °F 30.08 in ENE 5.1 mph   77% 0.00 in WeatherDisplay:10.37 W/m2 FEW
23:35 70.3 °F 62.7 °F 30.08 in ENE 5.1 mph   77% 0.00 in WeatherDisplay:10.37 W/m2 FEW
23:41 70.2 °F 62.3 °F 30.08 in ENE 5.1 mph   76% 0.00 in WeatherDisplay:10.37 W/m2 FEW
23:46 70.1 °F 62.6 °F 30.08 in ENE 5.1 mph   77% 0.00 in WeatherDisplay:10.37 W/m2 FEW
23:51 70.0 °F 62.1 °F 30.08 in ENE 5.1 mph   76% 0.00 in WeatherDisplay:10.37 W/m2 FEW
23:56 69.9 °F 62.4 °F 30.08 in ENE 5.1 mph   77% 0.00 in WeatherDisplay:10.37 W/m2 FEW
Piedmont Bend
Compliments of Weather Underground - 4 mb